Highland, Indiana
Current Conditions -  °F | °C
As of 6:15 PM on Wednesday 26 Nov 2014 (Local Time) from KIGQ Reporting Station
Overcast Overcast  
Wind Chill: 22°   Ceiling: 2200
Heat Index: 28°   Visibility: 10mi
Dew Point: 20°   Wind: 5mph
Humidity: 74%   Direction: 90°E
Pressure: 30.13"   Gusts: NA
Location:  41.55°N, 87.45°W
Report Text: KIGQ 270015Z AUTO 09004KT 10SM OVC022 M02/M07 A3013 RMK AO2 T10251066
Loading
Personal Weather Stations






























Interactive Weather Map New forecast layout! Learn more

10-Day Weather Forecast

Advertisements
Track Severe Weather on mobile